createdAt,value
2019-04-19T00:00:10.137Z,1
2019-04-19T00:01:26.788Z,1
2019-04-19T00:02:48.006Z,1
2019-04-19T00:04:04.626Z,1
2019-04-19T00:05:35.207Z,1
2019-04-19T00:07:03.182Z,1
2019-04-19T00:08:46.593Z,1
2019-04-19T00:11:09.167Z,1
2019-04-19T00:12:56.920Z,1
2019-04-19T00:14:16.638Z,1
2019-04-19T00:15:26.339Z,1
2019-04-19T00:16:36.312Z,1
2019-04-19T00:17:45.769Z,1
2019-04-19T00:19:13.905Z,1
2019-04-19T00:22:26.340Z,1
2019-04-19T00:24:27.190Z,1
2019-04-19T00:25:39.271Z,1
2019-04-19T00:26:48.771Z,1
2019-04-19T00:27:59.713Z,1
2019-04-19T00:29:21.873Z,1
2019-04-19T00:31:20.162Z,1
2019-04-19T00:33:23.030Z,1
2019-04-19T00:34:58.849Z,1
2019-04-19T00:36:09.865Z,1
2019-04-19T00:37:25.243Z,1
2019-04-19T00:38:42.372Z,1
2019-04-19T00:40:59.829Z,1
2019-04-19T00:43:38.790Z,1
2019-04-19T00:46:20.257Z,1
2019-04-19T00:49:07.608Z,1
2019-04-19T00:51:10.873Z,1
2019-04-19T00:53:28.192Z,1
2019-04-19T00:55:21.255Z,1
2019-04-19T00:57:24.164Z,1
2019-04-19T00:59:12.642Z,1
2019-04-19T01:00:32.286Z,5
2019-04-19T01:01:56.448Z,7.4
2019-04-19T01:03:32.630Z,15
2019-04-19T01:05:02.739Z,25
2019-04-19T01:06:34.294Z,28.7
2019-04-19T01:08:13.864Z,27.4
2019-04-19T01:09:46.136Z,27.4
2019-04-19T01:12:02.977Z,34.7
2019-04-19T01:14:20.030Z,48.8
2019-04-19T01:16:23.950Z,45.3
2019-04-19T01:18:43.904Z,51.2
2019-04-19T01:20:18.862Z,58.2
2019-04-19T01:21:28.228Z,63.5
2019-04-19T01:22:37.688Z,62.4
2019-04-19T01:23:50.486Z,63.3
2019-04-19T01:25:21.162Z,69.6
2019-04-19T01:26:43.579Z,68.8
2019-04-19T01:28:10.921Z,68.7
2019-04-19T01:29:37.963Z,79.2
2019-04-19T01:31:09.806Z,87
2019-04-19T01:32:42.901Z,90.6
2019-04-19T01:34:10.780Z,88.9
2019-04-19T01:35:40.915Z,89.9
2019-04-19T01:37:09.592Z,86.5
2019-04-19T01:38:40.752Z,85.4
2019-04-19T01:40:58.836Z,91.4
2019-04-19T01:43:23.396Z,92.8
2019-04-19T01:46:09.141Z,92.5
2019-04-19T01:48:46.541Z,91.1
2019-04-19T01:51:08.474Z,90.5
2019-04-19T01:53:49.745Z,89.1
2019-04-19T01:56:06.235Z,90.9
2019-04-19T01:57:28.204Z,90.3
2019-04-19T01:58:37.952Z,85.5
2019-04-19T02:00:11.722Z,92.5
2019-04-19T02:01:57.956Z,88.4
2019-04-19T02:03:31.070Z,90.2
2019-04-19T02:05:05.052Z,93.3
2019-04-19T02:06:33.579Z,92.9
2019-04-19T02:08:01.649Z,93.8
2019-04-19T02:09:31.190Z,94.7
2019-04-19T02:11:39.330Z,94.8
2019-04-19T02:13:46.435Z,96.2
2019-04-19T02:15:33.474Z,99.9
2019-04-19T02:17:03.017Z,99.9
2019-04-19T02:18:27.932Z,99.9
2019-04-19T02:19:49.914Z,99.9
2019-04-19T02:21:22.395Z,99.9
2019-04-19T02:22:55.070Z,99.9
2019-04-19T02:24:27.903Z,99.9
2019-04-19T02:26:04.869Z,99.9
2019-04-19T02:27:33.784Z,99.9
2019-04-19T02:29:02.450Z,99.9
2019-04-19T02:30:47.744Z,99.9
2019-04-19T02:34:13.529Z,99.9
2019-04-19T02:37:31.326Z,99.9
2019-04-19T02:44:15.161Z,99.9
2019-04-19T02:48:15.836Z,99.9
2019-04-19T02:51:51.936Z,99.9
2019-04-19T02:55:26.370Z,99.9
2019-04-19T02:59:29.248Z,99.9
2019-04-19T03:03:46.384Z,99.9
2019-04-19T03:06:54.231Z,99.9
2019-04-19T03:08:15.042Z,99.9
2019-04-19T03:09:29.810Z,99.9
2019-04-19T03:11:05.941Z,99.9
2019-04-19T03:13:25.371Z,99.9
2019-04-19T03:18:44.926Z,99.9
2019-04-19T03:21:11.318Z,99.9
2019-04-19T03:26:36.059Z,99.9
2019-04-19T03:28:35.271Z,99.9
2019-04-19T03:30:22.963Z,99.9
2019-04-19T03:36:47.052Z,99.9
2019-04-19T03:39:36.383Z,93.7
2019-04-19T03:42:34.754Z,77.8
2019-04-19T03:45:33.310Z,62.4
2019-04-19T03:48:32.525Z,41.5
2019-04-19T03:51:08.464Z,34.3
2019-04-19T03:54:11.166Z,40.4
2019-04-19T03:56:37.572Z,39.7
2019-04-19T03:58:39.656Z,41
2019-04-19T03:59:48.099Z,30
2019-04-19T04:00:56.349Z,31.9
2019-04-19T04:02:05.914Z,36.5
2019-04-19T04:03:24.158Z,31.8
2019-04-19T04:04:59.340Z,31.8
2019-04-19T04:06:27.279Z,29.3
2019-04-19T04:07:56.809Z,36.3
2019-04-19T04:09:33.032Z,33
2019-04-19T04:11:07.953Z,29.7
2019-04-19T04:12:47.295Z,28.9
2019-04-19T04:14:56.479Z,29.1
2019-04-19T04:17:01.993Z,25.7
2019-04-19T04:18:11.663Z,23.4
2019-04-19T04:19:22.470Z,17.9
2019-04-19T04:20:35.163Z,16.9
2019-04-19T04:22:07.339Z,18
2019-04-19T04:23:47.185Z,17.9
2019-04-19T04:25:48.307Z,18
2019-04-19T04:27:35.832Z,18.3
2019-04-19T04:29:38.802Z,15.8
2019-04-19T04:31:40.975Z,14.1
2019-04-19T04:33:42.186Z,13.8
2019-04-19T04:35:56.922Z,17.5
2019-04-19T04:38:28.989Z,18.8
2019-04-19T04:39:53.455Z,12.4
2019-04-19T04:41:06.962Z,15.6
2019-04-19T04:42:41.210Z,15.2
2019-04-19T04:45:14.781Z,16.6
2019-04-19T04:47:51.456Z,21.2
2019-04-19T04:50:23.779Z,21.1
2019-04-19T04:52:30.494Z,22.9
2019-04-19T04:53:53.352Z,23.1
2019-04-19T04:56:33.316Z,26.2
2019-04-19T04:58:25.029Z,30.3
2019-04-19T04:59:52.482Z,42.9
2019-04-19T05:01:14.305Z,40.2
2019-04-19T05:03:20.831Z,42.4
2019-04-19T05:05:46.746Z,43.7
2019-04-19T05:08:34.992Z,64.2
2019-04-19T05:11:19.981Z,76.3
2019-04-19T05:14:20.578Z,81
2019-04-19T05:17:11.950Z,78.7
2019-04-19T05:20:22.236Z,73.6
2019-04-19T05:22:57.724Z,76.7
2019-04-19T05:25:44.154Z,80.4
2019-04-19T22:00:11.674Z,1
2019-04-19T22:01:38.933Z,1
2019-04-19T22:02:59.545Z,1
2019-04-19T22:04:17.393Z,1
2019-04-19T22:05:29.220Z,1
2019-04-19T22:06:47.546Z,1
2019-04-19T22:08:20.820Z,1
2019-04-19T22:09:51.734Z,1
2019-04-19T22:11:18.414Z,1
2019-04-19T22:12:26.770Z,1
2019-04-19T22:13:40.903Z,1
2019-04-19T22:15:05.513Z,1
2019-04-19T22:16:31.054Z,1
2019-04-19T22:17:56.626Z,1
2019-04-19T22:19:22.229Z,1
2019-04-19T22:20:51.296Z,1
2019-04-19T22:22:16.799Z,1
2019-04-19T22:23:44.493Z,1
2019-04-19T22:25:06.454Z,1
2019-04-19T22:27:25.973Z,1
2019-04-19T22:28:35.370Z,1
2019-04-19T22:29:43.723Z,1
2019-04-19T22:30:55.041Z,1
2019-04-19T22:32:09.727Z,1
2019-04-19T22:33:28.242Z,1
2019-04-19T22:34:36.863Z,1
2019-04-19T22:35:46.033Z,1
2019-04-19T22:37:20.334Z,1
2019-04-19T22:38:47.739Z,5.3
2019-04-19T22:40:09.047Z,7
2019-04-19T22:41:20.973Z,10.2
2019-04-19T22:42:38.045Z,6.1
2019-04-19T22:44:22.901Z,1.4
2019-04-19T22:45:31.151Z,2.9
2019-04-19T22:46:44.128Z,1
2019-04-19T22:48:09.997Z,1
2019-04-19T22:49:33.862Z,1
2019-04-19T22:50:57.311Z,1
2019-04-19T22:52:24.785Z,1
2019-04-19T22:53:37.599Z,1
2019-04-19T22:54:55.193Z,2
2019-04-19T22:56:33.448Z,1
2019-04-19T22:58:24.664Z,1
2019-04-19T22:59:54.124Z,1
2019-04-19T23:01:14.351Z,1
2019-04-19T23:02:37.067Z,1
2019-04-19T23:04:05.509Z,1
2019-04-19T23:05:38.464Z,1
2019-04-19T23:07:03.963Z,1
2019-04-19T23:08:27.108Z,6.3
2019-04-19T23:09:50.794Z,8.8
2019-04-19T23:11:04.591Z,11.5
